sensor_id;sensor_type;location;lat;lon;timestamp;P1;durP1;ratioP1;P2;durP2;ratioP2
37151;SDS011;23046;50.112;8.952;2023-07-16T00:00:03;1.60;;;1.50;;
37151;SDS011;23046;50.112;8.952;2023-07-16T00:00:16;1.52;;;1.42;;
37151;SDS011;23046;50.112;8.952;2023-07-16T00:00:32;1.40;;;1.30;;
37151;SDS011;23046;50.112;8.952;2023-07-16T00:00:43;2.97;;;1.45;;
37151;SDS011;23046;50.112;8.952;2023-07-16T00:00:53;2.83;;;1.33;;
37151;SDS011;23046;50.112;8.952;2023-07-16T00:01:04;3.90;;;1.40;;
37151;SDS011;23046;50.112;8.952;2023-07-16T00:01:14;2.17;;;1.30;;
37151;SDS011;23046;50.112;8.952;2023-07-16T00:01:24;2.67;;;1.35;;
37151;SDS011;23046;50.112;8.952;2023-07-16T00:01:34;2.27;;;1.30;;
37151;SDS011;23046;50.112;8.952;2023-07-16T00:01:44;2.00;;;1.40;;
37151;SDS011;23046;50.112;8.952;2023-07-16T00:01:55;1.80;;;1.43;;
37151;SDS011;23046;50.112;8.952;2023-07-16T00:02:05;1.57;;;1.47;;
37151;SDS011;23046;50.112;8.952;2023-07-16T00:02:15;1.45;;;1.35;;
37151;SDS011;23046;50.112;8.952;2023-07-16T00:02:25;1.33;;;1.23;;
37151;SDS011;23046;50.112;8.952;2023-07-16T00:02:37;1.40;;;1.30;;
37151;SDS011;23046;50.112;8.952;2023-07-16T00:02:47;1.38;;;1.27;;
37151;SDS011;23046;50.112;8.952;2023-07-16T00:02:57;1.63;;;1.33;;
37151;SDS011;23046;50.112;8.952;2023-07-16T00:03:07;1.67;;;1.33;;
37151;SDS011;23046;50.112;8.952;2023-07-16T00:03:18;1.90;;;1.40;;
37151;SDS011;23046;50.112;8.952;2023-07-16T00:03:28;1.77;;;1.40;;
37151;SDS011;23046;50.112;8.952;2023-07-16T00:03:38;1.77;;;1.40;;
37151;SDS011;23046;50.112;8.952;2023-07-16T00:03:48;2.78;;;1.50;;
37151;SDS011;23046;50.112;8.952;2023-07-16T00:03:58;2.80;;;1.70;;
37151;SDS011;23046;50.112;8.952;2023-07-16T00:04:08;2.60;;;1.60;;
37151;SDS011;23046;50.112;8.952;2023-07-16T00:04:19;1.50;;;1.40;;
37151;SDS011;23046;50.112;8.952;2023-07-16T00:04:30;1.33;;;1.23;;
37151;SDS011;23046;50.112;8.952;2023-07-16T00:04:40;1.40;;;1.30;;
37151;SDS011;23046;50.112;8.952;2023-07-16T00:04:50;1.43;;;1.30;;
37151;SDS011;23046;50.112;8.952;2023-07-16T00:05:00;2.58;;;1.40;;
37151;SDS011;23046;50.112;8.952;2023-07-16T00:05:10;2.90;;;1.50;;
37151;SDS011;23046;50.112;8.952;2023-07-16T00:05:21;2.83;;;1.67;;
37151;SDS011;23046;50.112;8.952;2023-07-16T00:05:31;1.80;;;1.60;;
37151;SDS011;23046;50.112;8.952;2023-07-16T00:05:41;1.50;;;1.40;;
37151;SDS011;23046;50.112;8.952;2023-07-16T00:05:52;1.50;;;1.40;;
37151;SDS011;23046;50.112;8.952;2023-07-16T00:06:02;1.50;;;1.40;;
37151;SDS011;23046;50.112;8.952;2023-07-16T00:06:12;1.60;;;1.50;;
37151;SDS011;23046;50.112;8.952;2023-07-16T00:06:22;1.70;;;1.40;;
37151;SDS011;23046;50.112;8.952;2023-07-16T00:06:32;2.83;;;1.40;;
37151;SDS011;23046;50.112;8.952;2023-07-16T00:06:43;2.60;;;1.33;;
37151;SDS011;23046;50.112;8.952;2023-07-16T00:06:53;2.13;;;1.40;;
37151;SDS011;23046;50.112;8.952;2023-07-16T00:07:03;1.60;;;1.50;;
37151;SDS011;23046;50.112;8.952;2023-07-16T00:07:13;1.50;;;1.40;;
37151;SDS011;23046;50.112;8.952;2023-07-16T00:07:23;2.00;;;1.30;;
37151;SDS011;23046;50.112;8.952;2023-07-16T00:07:34;1.73;;;1.17;;
37151;SDS011;23046;50.112;8.952;2023-07-16T00:07:44;1.63;;;1.23;;
37151;SDS011;23046;50.112;8.952;2023-07-16T00:07:54;1.47;;;1.37;;
37151;SDS011;23046;50.112;8.952;2023-07-16T00:08:04;2.30;;;1.40;;
37151;SDS011;23046;50.112;8.952;2023-07-16T00:08:15;2.30;;;1.33;;
37151;SDS011;23046;50.112;8.952;2023-07-16T00:08:25;2.10;;;1.30;;
37151;SDS011;23046;50.112;8.952;2023-07-16T00:08:35;1.50;;;1.40;;
37151;SDS011;23046;50.112;8.952;2023-07-16T00:08:45;1.43;;;1.33;;
37151;SDS011;23046;50.112;8.952;2023-07-16T00:08:55;1.40;;;1.30;;
37151;SDS011;23046;50.112;8.952;2023-07-16T00:09:05;1.40;;;1.20;;
37151;SDS011;23046;50.112;8.952;2023-07-16T00:09:16;3.15;;;1.63;;
37151;SDS011;23046;50.112;8.952;2023-07-16T00:09:26;3.17;;;1.70;;
37151;SDS011;23046;50.112;8.952;2023-07-16T00:09:36;2.83;;;1.60;;
37151;SDS011;23046;50.112;8.952;2023-07-16T00:09:46;1.40;;;1.30;;
37151;SDS011;23046;50.112;8.952;2023-07-16T00:09:57;1.50;;;1.40;;
37151;SDS011;23046;50.112;8.952;2023-07-16T00:10:07;1.60;;;1.40;;
37151;SDS011;23046;50.112;8.952;2023-07-16T00:10:17;1.50;;;1.40;;
37151;SDS011;23046;50.112;8.952;2023-07-16T00:10:27;1.43;;;1.30;;
37151;SDS011;23046;50.112;8.952;2023-07-16T00:10:37;1.40;;;1.30;;
37151;SDS011;23046;50.112;8.952;2023-07-16T00:10:48;1.37;;;1.27;;
37151;SDS011;23046;50.112;8.952;2023-07-16T00:10:58;1.40;;;1.30;;
37151;SDS011;23046;50.112;8.952;2023-07-16T00:11:08;1.40;;;1.30;;
37151;SDS011;23046;50.112;8.952;2023-07-16T00:11:18;1.37;;;1.27;;
37151;SDS011;23046;50.112;8.952;2023-07-16T00:11:28;1.40;;;1.30;;
37151;SDS011;23046;50.112;8.952;2023-07-16T00:11:39;1.37;;;1.27;;
37151;SDS011;23046;50.112;8.952;2023-07-16T00:11:49;1.37;;;1.27;;
37151;SDS011;23046;50.112;8.952;2023-07-16T00:11:59;1.30;;;1.20;;
37151;SDS011;23046;50.112;8.952;2023-07-16T00:12:09;1.43;;;1.30;;
37151;SDS011;23046;50.112;8.952;2023-07-16T00:12:20;1.43;;;1.33;;
37151;SDS011;23046;50.112;8.952;2023-07-16T00:12:30;1.43;;;1.33;;
37151;SDS011;23046;50.112;8.952;2023-07-16T00:12:40;1.35;;;1.20;;
37151;SDS011;23046;50.112;8.952;2023-07-16T00:12:50;1.60;;;1.23;;
37151;SDS011;23046;50.112;8.952;2023-07-16T00:13:00;1.57;;;1.30;;
37151;SDS011;23046;50.112;8.952;2023-07-16T00:13:11;1.63;;;1.50;;
37151;SDS011;23046;50.112;8.952;2023-07-16T00:13:21;1.57;;;1.47;;
37151;SDS011;23046;50.112;8.952;2023-07-16T00:13:31;1.45;;;1.35;;
37151;SDS011;23046;50.112;8.952;2023-07-16T00:13:41;1.90;;;1.30;;
37151;SDS011;23046;50.112;8.952;2023-07-16T00:13:56;1.70;;;1.38;;
37151;SDS011;23046;50.112;8.952;2023-07-16T00:14:06;1.47;;;1.27;;
37151;SDS011;23046;50.112;8.952;2023-07-16T00:14:17;1.35;;;1.25;;
37151;SDS011;23046;50.112;8.952;2023-07-16T00:14:27;1.30;;;1.20;;
37151;SDS011;23046;50.112;8.952;2023-07-16T00:14:37;1.30;;;1.20;;
37151;SDS011;23046;50.112;8.952;2023-07-16T00:14:47;1.27;;;1.20;;
37151;SDS011;23046;50.112;8.952;2023-07-16T00:14:57;1.50;;;1.30;;
37151;SDS011;23046;50.112;8.952;2023-07-16T00:15:08;1.50;;;1.40;;
37151;SDS011;23046;50.112;8.952;2023-07-16T00:15:18;1.57;;;1.40;;
37151;SDS011;23046;50.112;8.952;2023-07-16T00:15:28;2.35;;;1.40;;
37151;SDS011;23046;50.112;8.952;2023-07-16T00:15:39;2.40;;;1.37;;
37151;SDS011;23046;50.112;8.952;2023-07-16T00:15:49;2.10;;;1.47;;
37151;SDS011;23046;50.112;8.952;2023-07-16T00:15:59;1.43;;;1.33;;
37151;SDS011;23046;50.112;8.952;2023-07-16T00:16:09;1.42;;;1.33;;
37151;SDS011;23046;50.112;8.952;2023-07-16T00:16:19;1.40;;;1.30;;
37151;SDS011;23046;50.112;8.952;2023-07-16T00:16:29;1.40;;;1.30;;
37151;SDS011;23046;50.112;8.952;2023-07-16T00:16:40;1.40;;;1.30;;
37151;SDS011;23046;50.112;8.952;2023-07-16T00:16:50;1.43;;;1.33;;
37151;SDS011;23046;50.112;8.952;2023-07-16T00:17:00;1.40;;;1.30;;
37151;SDS011;23046;50.112;8.952;2023-07-16T00:17:10;1.48;;;1.38;;
37151;SDS011;23046;50.112;8.952;2023-07-16T00:17:21;1.23;;;1.23;;
37151;SDS011;23046;50.112;8.952;2023-07-16T00:17:31;1.30;;;1.30;;
37151;SDS011;23046;50.112;8.952;2023-07-16T00:17:42;1.30;;;1.20;;
37151;SDS011;23046;50.112;8.952;2023-07-16T00:17:52;1.33;;;1.23;;
37151;SDS011;23046;50.112;8.952;2023-07-16T00:18:02;1.47;;;1.30;;
37151;SDS011;23046;50.112;8.952;2023-07-16T00:18:13;1.40;;;1.30;;
37151;SDS011;23046;50.112;8.952;2023-07-16T00:18:23;1.50;;;1.37;;
37151;SDS011;23046;50.112;8.952;2023-07-16T00:18:33;1.38;;;1.27;;
37151;SDS011;23046;50.112;8.952;2023-07-16T00:18:44;1.33;;;1.20;;
37151;SDS011;23046;50.112;8.952;2023-07-16T00:18:54;1.10;;;1.00;;
37151;SDS011;23046;50.112;8.952;2023-07-16T00:19:04;1.33;;;1.23;;
37151;SDS011;23046;50.112;8.952;2023-07-16T00:19:15;1.50;;;1.40;;
37151;SDS011;23046;50.112;8.952;2023-07-16T00:19:25;1.60;;;1.50;;
37151;SDS011;23046;50.112;8.952;2023-07-16T00:19:35;1.50;;;1.40;;
37151;SDS011;23046;50.112;8.952;2023-07-16T00:19:45;1.77;;;1.50;;
37151;SDS011;23046;50.112;8.952;2023-07-16T00:19:55;1.80;;;1.40;;
37151;SDS011;23046;50.112;8.952;2023-07-16T00:20:06;1.52;;;1.30;;
37151;SDS011;23046;50.112;8.952;2023-07-16T00:20:16;1.10;;;1.10;;
37151;SDS011;23046;50.112;8.952;2023-07-16T00:20:26;1.13;;;1.13;;
37151;SDS011;23046;50.112;8.952;2023-07-16T00:20:37;1.30;;;1.20;;
37151;SDS011;23046;50.112;8.952;2023-07-16T00:20:47;1.30;;;1.20;;
37151;SDS011;23046;50.112;8.952;2023-07-16T00:20:57;1.20;;;1.10;;
37151;SDS011;23046;50.112;8.952;2023-07-16T00:21:11;1.05;;;1.05;;
37151;SDS011;23046;50.112;8.952;2023-07-16T00:21:21;1.27;;;1.17;;
37151;SDS011;23046;50.112;8.952;2023-07-16T00:21:31;1.40;;;1.30;;
37151;SDS011;23046;50.112;8.952;2023-07-16T00:21:41;1.40;;;1.30;;
37151;SDS011;23046;50.112;8.952;2023-07-16T00:21:51;1.37;;;1.30;;
37151;SDS011;23046;50.112;8.952;2023-07-16T00:22:02;1.50;;;1.40;;
37151;SDS011;23046;50.112;8.952;2023-07-16T00:22:12;2.70;;;1.60;;
37151;SDS011;23046;50.112;8.952;2023-07-16T00:22:22;3.07;;;1.60;;
37151;SDS011;23046;50.112;8.952;2023-07-16T00:22:32;3.30;;;1.60;;
37151;SDS011;23046;50.112;8.952;2023-07-16T00:22:43;1.90;;;1.50;;
37151;SDS011;23046;50.112;8.952;2023-07-16T00:22:53;1.80;;;1.33;;
37151;SDS011;23046;50.112;8.952;2023-07-16T00:23:04;1.43;;;1.30;;
37151;SDS011;23046;50.112;8.952;2023-07-16T00:23:14;1.27;;;1.15;;
37151;SDS011;23046;50.112;8.952;2023-07-16T00:23:24;1.40;;;1.30;;
37151;SDS011;23046;50.112;8.952;2023-07-16T00:23:34;1.30;;;1.20;;
37151;SDS011;23046;50.112;8.952;2023-07-16T00:23:44;1.40;;;1.30;;
37151;SDS011;23046;50.112;8.952;2023-07-16T00:23:54;1.63;;;1.23;;
37151;SDS011;23046;50.112;8.952;2023-07-16T00:24:05;2.72;;;1.20;;
37151;SDS011;23046;50.112;8.952;2023-07-16T00:24:16;2.70;;;1.15;;
37151;SDS011;23046;50.112;8.952;2023-07-16T00:24:26;1.63;;;1.10;;
37151;SDS011;23046;50.112;8.952;2023-07-16T00:24:36;1.23;;;1.13;;
37151;SDS011;23046;50.112;8.952;2023-07-16T00:24:46;1.20;;;1.10;;
37151;SDS011;23046;50.112;8.952;2023-07-16T00:24:57;2.33;;;1.30;;
37151;SDS011;23046;50.112;8.952;2023-07-16T00:25:07;2.50;;;1.23;;
37151;SDS011;23046;50.112;8.952;2023-07-16T00:25:17;2.90;;;1.23;;
37151;SDS011;23046;50.112;8.952;2023-07-16T00:25:27;1.50;;;1.10;;
37151;SDS011;23046;50.112;8.952;2023-07-16T00:25:37;1.33;;;1.07;;
37151;SDS011;23046;50.112;8.952;2023-07-16T00:25:48;1.10;;;1.00;;
37151;SDS011;23046;50.112;8.952;2023-07-16T00:25:58;1.10;;;1.10;;
37151;SDS011;23046;50.112;8.952;2023-07-16T00:26:08;1.30;;;1.20;;
37151;SDS011;23046;50.112;8.952;2023-07-16T00:26:18;1.40;;;1.27;;
37151;SDS011;23046;50.112;8.952;2023-07-16T00:26:29;1.47;;;1.33;;
37151;SDS011;23046;50.112;8.952;2023-07-16T00:26:39;1.30;;;1.20;;
37151;SDS011;23046;50.112;8.952;2023-07-16T00:26:49;1.37;;;1.27;;
37151;SDS011;23046;50.112;8.952;2023-07-16T00:26:59;1.40;;;1.20;;
37151;SDS011;23046;50.112;8.952;2023-07-16T00:27:10;1.90;;;1.30;;
37151;SDS011;23046;50.112;8.952;2023-07-16T00:27:20;1.90;;;1.20;;
37151;SDS011;23046;50.112;8.952;2023-07-16T00:27:30;1.70;;;1.20;;
37151;SDS011;23046;50.112;8.952;2023-07-16T00:27:40;1.20;;;1.10;;
37151;SDS011;23046;50.112;8.952;2023-07-16T00:27:50;1.30;;;1.20;;
37151;SDS011;23046;50.112;8.952;2023-07-16T00:28:01;1.30;;;1.20;;
37151;SDS011;23046;50.112;8.952;2023-07-16T00:28:11;1.43;;;1.30;;
37151;SDS011;23046;50.112;8.952;2023-07-16T00:28:22;1.77;;;1.20;;
37151;SDS011;23046;50.112;8.952;2023-07-16T00:28:32;2.30;;;1.40;;
37151;SDS011;23046;50.112;8.952;2023-07-16T00:28:42;3.15;;;1.38;;
37151;SDS011;23046;50.112;8.952;2023-07-16T00:28:52;2.57;;;1.30;;
37151;SDS011;23046;50.112;8.952;2023-07-16T00:29:02;2.53;;;1.30;;
37151;SDS011;23046;50.112;8.952;2023-07-16T00:29:13;1.40;;;1.30;;
37151;SDS011;23046;50.112;8.952;2023-07-16T00:29:23;1.40;;;1.30;;
37151;SDS011;23046;50.112;8.952;2023-07-16T00:29:33;1.50;;;1.20;;
37151;SDS011;23046;50.112;8.952;2023-07-16T00:29:44;1.80;;;1.30;;
37151;SDS011;23046;50.112;8.952;2023-07-16T00:29:54;2.00;;;1.30;;
37151;SDS011;23046;50.112;8.952;2023-07-16T00:30:04;2.65;;;1.35;;
37151;SDS011;23046;50.112;8.952;2023-07-16T00:30:15;2.50;;;1.30;;
37151;SDS011;23046;50.112;8.952;2023-07-16T00:30:25;2.83;;;1.33;;
37151;SDS011;23046;50.112;8.952;2023-07-16T00:30:35;1.50;;;1.40;;
37151;SDS011;23046;50.112;8.952;2023-07-16T00:30:45;1.53;;;1.40;;
37151;SDS011;23046;50.112;8.952;2023-07-16T00:30:56;1.40;;;1.30;;
37151;SDS011;23046;50.112;8.952;2023-07-16T00:31:06;1.53;;;1.30;;
37151;SDS011;23046;50.112;8.952;2023-07-16T00:31:16;3.20;;;1.27;;
37151;SDS011;23046;50.112;8.952;2023-07-16T00:31:26;3.47;;;1.23;;
37151;SDS011;23046;50.112;8.952;2023-07-16T00:31:36;3.10;;;1.15;;
37151;SDS011;23046;50.112;8.952;2023-07-16T00:31:47;1.27;;;1.07;;
37151;SDS011;23046;50.112;8.952;2023-07-16T00:31:57;1.53;;;1.13;;
37151;SDS011;23046;50.112;8.952;2023-07-16T00:32:07;1.40;;;1.17;;
37151;SDS011;23046;50.112;8.952;2023-07-16T00:32:18;1.33;;;1.23;;
37151;SDS011;23046;50.112;8.952;2023-07-16T00:32:28;1.13;;;1.13;;
37151;SDS011;23046;50.112;8.952;2023-07-16T00:32:38;1.43;;;1.20;;
37151;SDS011;23046;50.112;8.952;2023-07-16T00:32:48;1.73;;;1.13;;
37151;SDS011;23046;50.112;8.952;2023-07-16T00:32:59;2.10;;;1.20;;
37151;SDS011;23046;50.112;8.952;2023-07-16T00:33:09;1.63;;;1.30;;
37151;SDS011;23046;50.112;8.952;2023-07-16T00:33:19;1.80;;;1.40;;
37151;SDS011;23046;50.112;8.952;2023-07-16T00:33:29;1.80;;;1.33;;
37151;SDS011;23046;50.112;8.952;2023-07-16T00:33:40;2.40;;;1.20;;
37151;SDS011;23046;50.112;8.952;2023-07-16T00:33:50;2.13;;;1.20;;
37151;SDS011;23046;50.112;8.952;2023-07-16T00:34:00;2.37;;;1.30;;
37151;SDS011;23046;50.112;8.952;2023-07-16T00:34:10;1.90;;;1.33;;
37151;SDS011;23046;50.112;8.952;2023-07-16T00:34:23;1.70;;;1.30;;
37151;SDS011;23046;50.112;8.952;2023-07-16T00:34:33;1.20;;;1.10;;
37151;SDS011;23046;50.112;8.952;2023-07-16T00:34:43;1.30;;;1.20;;
37151;SDS011;23046;50.112;8.952;2023-07-16T00:34:54;1.42;;;1.33;;
37151;SDS011;23046;50.112;8.952;2023-07-16T00:35:04;1.40;;;1.30;;
37151;SDS011;23046;50.112;8.952;2023-07-16T00:35:16;1.30;;;1.20;;
37151;SDS011;23046;50.112;8.952;2023-07-16T00:35:26;1.20;;;1.10;;
37151;SDS011;23046;50.112;8.952;2023-07-16T00:35:36;1.97;;;1.10;;
37151;SDS011;23046;50.112;8.952;2023-07-16T00:35:47;1.97;;;1.20;;
37151;SDS011;23046;50.112;8.952;2023-07-16T00:35:57;2.20;;;1.30;;
37151;SDS011;23046;50.112;8.952;2023-07-16T00:36:08;1.40;;;1.30;;
37151;SDS011;23046;50.112;8.952;2023-07-16T00:36:19;1.40;;;1.30;;
37151;SDS011;23046;50.112;8.952;2023-07-16T00:36:29;1.33;;;1.23;;
37151;SDS011;23046;50.112;8.952;2023-07-16T00:36:39;1.30;;;1.20;;
37151;SDS011;23046;50.112;8.952;2023-07-16T00:36:50;1.20;;;1.10;;
37151;SDS011;23046;50.112;8.952;2023-07-16T00:37:00;1.20;;;1.10;;
37151;SDS011;23046;50.112;8.952;2023-07-16T00:37:12;1.23;;;1.13;;
37151;SDS011;23046;50.112;8.952;2023-07-16T00:37:24;1.10;;;1.10;;
37151;SDS011;23046;50.112;8.952;2023-07-16T00:37:34;1.40;;;1.30;;
37151;SDS011;23046;50.112;8.952;2023-07-16T00:37:44;1.50;;;1.40;;
37151;SDS011;23046;50.112;8.952;2023-07-16T00:37:55;1.60;;;1.40;;
37151;SDS011;23046;50.112;8.952;2023-07-16T00:38:05;1.73;;;1.30;;
37151;SDS011;23046;50.112;8.952;2023-07-16T00:38:18;1.20;;;1.10;;
37151;SDS011;23046;50.112;8.952;2023-07-16T00:38:28;1.10;;;1.02;;
37151;SDS011;23046;50.112;8.952;2023-07-16T00:38:38;1.10;;;1.00;;
37151;SDS011;23046;50.112;8.952;2023-07-16T00:38:50;1.23;;;1.13;;
37151;SDS011;23046;50.112;8.952;2023-07-16T00:39:00;1.23;;;1.13;;
37151;SDS011;23046;50.112;8.952;2023-07-16T00:39:11;1.23;;;1.13;;
37151;SDS011;23046;50.112;8.952;2023-07-16T00:39:21;1.30;;;1.20;;
37151;SDS011;23046;50.112;8.952;2023-07-16T00:39:31;1.33;;;1.23;;
37151;SDS011;23046;50.112;8.952;2023-07-16T00:39:41;1.40;;;1.20;;
37151;SDS011;23046;50.112;8.952;2023-07-16T00:39:51;1.40;;;1.20;;
37151;SDS011;23046;50.112;8.952;2023-07-16T00:40:02;1.47;;;1.20;;
37151;SDS011;23046;50.112;8.952;2023-07-16T00:40:13;1.45;;;1.35;;
37151;SDS011;23046;50.112;8.952;2023-07-16T00:40:23;1.45;;;1.35;;
37151;SDS011;23046;50.112;8.952;2023-07-16T00:40:33;1.40;;;1.30;;
37151;SDS011;23046;50.112;8.952;2023-07-16T00:40:44;1.30;;;1.20;;
37151;SDS011;23046;50.112;8.952;2023-07-16T00:40:54;1.13;;;1.03;;
37151;SDS011;23046;50.112;8.952;2023-07-16T00:41:04;1.20;;;1.10;;
37151;SDS011;23046;50.112;8.952;2023-07-16T00:41:14;1.27;;;1.10;;
37151;SDS011;23046;50.112;8.952;2023-07-16T00:41:24;2.10;;;1.30;;
37151;SDS011;23046;50.112;8.952;2023-07-16T00:41:35;1.97;;;1.20;;
37151;SDS011;23046;50.112;8.952;2023-07-16T00:41:45;1.50;;;1.10;;
37151;SDS011;23046;50.112;8.952;2023-07-16T00:41:55;1.23;;;1.13;;
37151;SDS011;23046;50.112;8.952;2023-07-16T00:42:06;1.30;;;1.20;;
37151;SDS011;23046;50.112;8.952;2023-07-16T00:42:16;3.00;;;1.23;;
37151;SDS011;23046;50.112;8.952;2023-07-16T00:42:26;3.03;;;1.17;;
37151;SDS011;23046;50.112;8.952;2023-07-16T00:42:37;2.93;;;1.13;;
37151;SDS011;23046;50.112;8.952;2023-07-16T00:42:47;1.23;;;1.13;;
37151;SDS011;23046;50.112;8.952;2023-07-16T00:42:57;1.17;;;1.13;;
37151;SDS011;23046;50.112;8.952;2023-07-16T00:43:07;1.40;;;1.20;;
37151;SDS011;23046;50.112;8.952;2023-07-16T00:43:17;1.70;;;1.27;;
37151;SDS011;23046;50.112;8.952;2023-07-16T00:43:28;1.73;;;1.20;;
37151;SDS011;23046;50.112;8.952;2023-07-16T00:43:38;1.30;;;1.20;;
37151;SDS011;23046;50.112;8.952;2023-07-16T00:43:48;2.67;;;1.23;;
37151;SDS011;23046;50.112;8.952;2023-07-16T00:43:59;2.70;;;1.25;;
37151;SDS011;23046;50.112;8.952;2023-07-16T00:44:09;2.63;;;1.23;;
37151;SDS011;23046;50.112;8.952;2023-07-16T00:44:22;1.33;;;1.23;;
37151;SDS011;23046;50.112;8.952;2023-07-16T00:44:32;1.30;;;1.20;;
37151;SDS011;23046;50.112;8.952;2023-07-16T00:44:42;1.30;;;1.20;;
37151;SDS011;23046;50.112;8.952;2023-07-16T00:44:53;1.23;;;1.13;;
37151;SDS011;23046;50.112;8.952;2023-07-16T00:45:03;2.23;;;1.20;;
37151;SDS011;23046;50.112;8.952;2023-07-16T00:45:18;2.05;;;1.13;;
37151;SDS011;23046;50.112;8.952;2023-07-16T00:45:28;1.20;;;1.10;;
37151;SDS011;23046;50.112;8.952;2023-07-16T00:45:39;1.43;;;1.00;;
37151;SDS011;23046;50.112;8.952;2023-07-16T00:45:50;1.95;;;1.05;;
37151;SDS011;23046;50.112;8.952;2023-07-16T00:46:00;2.47;;;1.20;;
37151;SDS011;23046;50.112;8.952;2023-07-16T00:46:10;2.90;;;1.30;;
37151;SDS011;23046;50.112;8.952;2023-07-16T00:46:21;2.53;;;1.40;;
37151;SDS011;23046;50.112;8.952;2023-07-16T00:46:31;1.80;;;1.30;;
37151;SDS011;23046;50.112;8.952;2023-07-16T00:46:41;1.40;;;1.30;;
37151;SDS011;23046;50.112;8.952;2023-07-16T00:46:51;2.00;;;1.30;;
37151;SDS011;23046;50.112;8.952;2023-07-16T00:47:02;2.05;;;1.33;;
37151;SDS011;23046;50.112;8.952;2023-07-16T00:47:12;2.23;;;1.30;;
37151;SDS011;23046;50.112;8.952;2023-07-16T00:47:23;1.30;;;1.20;;
37151;SDS011;23046;50.112;8.952;2023-07-16T00:47:34;1.10;;;1.03;;
37151;SDS011;23046;50.112;8.952;2023-07-16T00:47:44;1.05;;;1.05;;
37151;SDS011;23046;50.112;8.952;2023-07-16T00:47:54;1.23;;;1.20;;
37151;SDS011;23046;50.112;8.952;2023-07-16T00:48:05;1.97;;;1.30;;
37151;SDS011;23046;50.112;8.952;2023-07-16T00:48:16;2.00;;;1.40;;
37151;SDS011;23046;50.112;8.952;2023-07-16T00:48:27;1.60;;;1.30;;
37151;SDS011;23046;50.112;8.952;2023-07-16T00:48:37;1.40;;;1.30;;
37151;SDS011;23046;50.112;8.952;2023-07-16T00:48:48;1.33;;;1.23;;
37151;SDS011;23046;50.112;8.952;2023-07-16T00:48:59;1.33;;;1.23;;
37151;SDS011;23046;50.112;8.952;2023-07-16T00:49:09;1.30;;;1.20;;
37151;SDS011;23046;50.112;8.952;2023-07-16T00:49:20;1.30;;;1.20;;
37151;SDS011;23046;50.112;8.952;2023-07-16T00:49:30;1.50;;;1.20;;
37151;SDS011;23046;50.112;8.952;2023-07-16T00:49:42;1.48;;;1.20;;
37151;SDS011;23046;50.112;8.952;2023-07-16T00:49:52;1.40;;;1.30;;
37151;SDS011;23046;50.112;8.952;2023-07-16T00:50:03;1.40;;;1.30;;
37151;SDS011;23046;50.112;8.952;2023-07-16T00:50:14;1.40;;;1.30;;
37151;SDS011;23046;50.112;8.952;2023-07-16T00:50:24;1.40;;;1.30;;
37151;SDS011;23046;50.112;8.952;2023-07-16T00:50:34;1.50;;;1.40;;
37151;SDS011;23046;50.112;8.952;2023-07-16T00:50:49;1.55;;;1.45;;
37151;SDS011;23046;50.112;8.952;2023-07-16T00:51:01;1.40;;;1.30;;
37151;SDS011;23046;50.112;8.952;2023-07-16T00:51:12;1.67;;;1.30;;
37151;SDS011;23046;50.112;8.952;2023-07-16T00:51:23;1.48;;;1.20;;
37151;SDS011;23046;50.112;8.952;2023-07-16T00:51:34;1.55;;;1.20;;
37151;SDS011;23046;50.112;8.952;2023-07-16T00:51:44;1.40;;;1.20;;
37151;SDS011;23046;50.112;8.952;2023-07-16T00:51:54;1.63;;;1.37;;
37151;SDS011;23046;50.112;8.952;2023-07-16T00:52:05;1.47;;;1.37;;
37151;SDS011;23046;50.112;8.952;2023-07-16T00:52:18;1.67;;;1.40;;
37151;SDS011;23046;50.112;8.952;2023-07-16T00:52:29;1.55;;;1.40;;
37151;SDS011;23046;50.112;8.952;2023-07-16T00:52:39;1.50;;;1.40;;
37151;SDS011;23046;50.112;8.952;2023-07-16T00:52:50;1.33;;;1.30;;
37151;SDS011;23046;50.112;8.952;2023-07-16T00:53:00;1.90;;;1.25;;
37151;SDS011;23046;50.112;8.952;2023-07-16T00:53:11;2.50;;;1.30;;
37151;SDS011;23046;50.112;8.952;2023-07-16T00:53:22;2.65;;;1.30;;
37151;SDS011;23046;50.112;8.952;2023-07-16T00:53:33;1.40;;;1.30;;
37151;SDS011;23046;50.112;8.952;2023-07-16T00:53:43;1.40;;;1.30;;
37151;SDS011;23046;50.112;8.952;2023-07-16T00:53:54;1.40;;;1.30;;
37151;SDS011;23046;50.112;8.952;2023-07-16T00:54:05;1.40;;;1.30;;
37151;SDS011;23046;50.112;8.952;2023-07-16T00:54:16;1.40;;;1.30;;
37151;SDS011;23046;50.112;8.952;2023-07-16T00:54:26;2.00;;;1.20;;
37151;SDS011;23046;50.112;8.952;2023-07-16T00:54:37;1.90;;;1.20;;
37151;SDS011;23046;50.112;8.952;2023-07-16T00:54:48;1.60;;;1.30;;
37151;SDS011;23046;50.112;8.952;2023-07-16T00:54:58;1.70;;;1.47;;
37151;SDS011;23046;50.112;8.952;2023-07-16T00:55:08;1.98;;;1.40;;
37151;SDS011;23046;50.112;8.952;2023-07-16T00:55:19;1.55;;;1.27;;
37151;SDS011;23046;50.112;8.952;2023-07-16T00:55:29;1.23;;;1.13;;
37151;SDS011;23046;50.112;8.952;2023-07-16T00:55:40;1.10;;;1.10;;
37151;SDS011;23046;50.112;8.952;2023-07-16T00:55:50;1.30;;;1.20;;
37151;SDS011;23046;50.112;8.952;2023-07-16T00:56:01;1.77;;;1.30;;
37151;SDS011;23046;50.112;8.952;2023-07-16T00:56:11;1.70;;;1.33;;
37151;SDS011;23046;50.112;8.952;2023-07-16T00:56:25;1.17;;;1.17;;
37151;SDS011;23046;50.112;8.952;2023-07-16T00:56:36;1.25;;;1.15;;
37151;SDS011;23046;50.112;8.952;2023-07-16T00:56:47;1.30;;;1.20;;
37151;SDS011;23046;50.112;8.952;2023-07-16T00:56:57;1.37;;;1.20;;
37151;SDS011;23046;50.112;8.952;2023-07-16T00:57:07;1.30;;;1.20;;
37151;SDS011;23046;50.112;8.952;2023-07-16T00:57:18;2.40;;;1.20;;
37151;SDS011;23046;50.112;8.952;2023-07-16T00:57:28;2.30;;;1.27;;
37151;SDS011;23046;50.112;8.952;2023-07-16T00:57:39;2.28;;;1.20;;
37151;SDS011;23046;50.112;8.952;2023-07-16T00:57:50;1.20;;;1.20;;
37151;SDS011;23046;50.112;8.952;2023-07-16T00:58:01;1.20;;;1.10;;
37151;SDS011;23046;50.112;8.952;2023-07-16T00:58:15;1.27;;;1.17;;
37151;SDS011;23046;50.112;8.952;2023-07-16T00:58:25;1.47;;;1.23;;
37151;SDS011;23046;50.112;8.952;2023-07-16T00:58:35;2.00;;;1.30;;
37151;SDS011;23046;50.112;8.952;2023-07-16T00:58:46;2.22;;;1.20;;
37151;SDS011;23046;50.112;8.952;2023-07-16T00:58:57;1.80;;;1.10;;
37151;SDS011;23046;50.112;8.952;2023-07-16T00:59:07;1.20;;;1.10;;
37151;SDS011;23046;50.112;8.952;2023-07-16T00:59:17;1.33;;;1.13;;
37151;SDS011;23046;50.112;8.952;2023-07-16T00:59:27;1.30;;;1.10;;
37151;SDS011;23046;50.112;8.952;2023-07-16T00:59:38;1.27;;;1.13;;
37151;SDS011;23046;50.112;8.952;2023-07-16T00:59:48;1.40;;;1.30;;
37151;SDS011;23046;50.112;8.952;2023-07-16T01:00:00;1.50;;;1.40;;
37151;SDS011;23046;50.112;8.952;2023-07-16T01:00:11;1.50;;;1.40;;
37151;SDS011;23046;50.112;8.952;2023-07-16T01:00:21;1.40;;;1.30;;
37151;SDS011;23046;50.112;8.952;2023-07-16T01:00:35;1.50;;;1.40;;
37151;SDS011;23046;50.112;8.952;2023-07-16T01:00:45;1.45;;;1.30;;
37151;SDS011;23046;50.112;8.952;2023-07-16T01:00:55;1.20;;;1.10;;
37151;SDS011;23046;50.112;8.952;2023-07-16T01:01:06;1.23;;;1.10;;
37151;SDS011;23046;50.112;8.952;2023-07-16T01:01:16;1.57;;;1.23;;
37151;SDS011;23046;50.112;8.952;2023-07-16T01:01:26;1.93;;;1.27;;
37151;SDS011;23046;50.112;8.952;2023-07-16T01:01:37;3.30;;;1.43;;
37151;SDS011;23046;50.112;8.952;2023-07-16T01:01:48;2.95;;;1.35;;
37151;SDS011;23046;50.112;8.952;2023-07-16T01:01:59;2.80;;;1.30;;
37151;SDS011;23046;50.112;8.952;2023-07-16T01:02:09;1.40;;;1.10;;
37151;SDS011;23046;50.112;8.952;2023-07-16T01:02:19;1.97;;;1.30;;
37151;SDS011;23046;50.112;8.952;2023-07-16T01:02:29;1.77;;;1.30;;
37151;SDS011;23046;50.112;8.952;2023-07-16T01:02:40;1.57;;;1.30;;
37151;SDS011;23046;50.112;8.952;2023-07-16T01:02:50;1.40;;;1.30;;
37151;SDS011;23046;50.112;8.952;2023-07-16T01:03:04;1.40;;;1.30;;
37151;SDS011;23046;50.112;8.952;2023-07-16T01:03:15;1.27;;;1.17;;